sensor_id;sensor_type;location;lat;lon;timestamp;P1;durP1;ratioP1;P2;durP2;ratioP2
64037;SDS011;54641;50.168;8.492;2022-11-18T00:01:51;23.10;;;10.60;;
64037;SDS011;54641;50.168;8.492;2022-11-18T00:04:21;24.70;;;10.60;;
64037;SDS011;54641;50.168;8.492;2022-11-18T00:06:52;21.60;;;10.40;;
64037;SDS011;54641;50.168;8.492;2022-11-18T00:09:23;20.10;;;9.40;;
64037;SDS011;54641;50.168;8.492;2022-11-18T00:11:53;25.20;;;12.20;;
64037;SDS011;54641;50.168;8.492;2022-11-18T00:14:43;24.20;;;10.10;;
64037;SDS011;54641;50.168;8.492;2022-11-18T00:17:13;26.30;;;11.40;;
64037;SDS011;54641;50.168;8.492;2022-11-18T00:19:44;27.90;;;12.00;;
64037;SDS011;54641;50.168;8.492;2022-11-18T00:22:15;24.90;;;11.50;;
64037;SDS011;54641;50.168;8.492;2022-11-18T00:24:45;26.90;;;11.30;;
64037;SDS011;54641;50.168;8.492;2022-11-18T00:27:15;27.80;;;10.40;;
64037;SDS011;54641;50.168;8.492;2022-11-18T00:29:46;28.10;;;11.40;;
64037;SDS011;54641;50.168;8.492;2022-11-18T00:32:16;27.70;;;11.50;;
64037;SDS011;54641;50.168;8.492;2022-11-18T00:34:47;23.60;;;10.50;;
64037;SDS011;54641;50.168;8.492;2022-11-18T00:37:17;21.50;;;10.90;;
64037;SDS011;54641;50.168;8.492;2022-11-18T00:39:48;30.00;;;10.90;;
64037;SDS011;54641;50.168;8.492;2022-11-18T00:42:18;25.10;;;9.70;;
64037;SDS011;54641;50.168;8.492;2022-11-18T00:45:07;29.10;;;11.10;;
64037;SDS011;54641;50.168;8.492;2022-11-18T00:47:38;24.00;;;10.70;;
64037;SDS011;54641;50.168;8.492;2022-11-18T00:50:08;23.30;;;10.00;;
64037;SDS011;54641;50.168;8.492;2022-11-18T00:52:39;22.50;;;9.40;;
64037;SDS011;54641;50.168;8.492;2022-11-18T00:55:09;24.70;;;9.50;;
64037;SDS011;54641;50.168;8.492;2022-11-18T00:57:40;19.90;;;9.90;;
64037;SDS011;54641;50.168;8.492;2022-11-18T01:00:11;20.00;;;10.10;;
64037;SDS011;54641;50.168;8.492;2022-11-18T01:02:42;24.00;;;10.70;;
64037;SDS011;54641;50.168;8.492;2022-11-18T01:05:12;28.50;;;11.80;;
64037;SDS011;54641;50.168;8.492;2022-11-18T01:07:43;24.70;;;10.90;;
64037;SDS011;54641;50.168;8.492;2022-11-18T01:10:13;25.60;;;10.70;;
64037;SDS011;54641;50.168;8.492;2022-11-18T01:12:44;24.80;;;10.10;;
64037;SDS011;54641;50.168;8.492;2022-11-18T01:15:37;25.00;;;10.60;;
64037;SDS011;54641;50.168;8.492;2022-11-18T01:18:08;29.60;;;11.20;;
64037;SDS011;54641;50.168;8.492;2022-11-18T01:20:39;32.60;;;13.10;;
64037;SDS011;54641;50.168;8.492;2022-11-18T01:23:09;24.20;;;11.40;;
64037;SDS011;54641;50.168;8.492;2022-11-18T01:25:41;22.10;;;10.40;;
64037;SDS011;54641;50.168;8.492;2022-11-18T01:28:12;24.00;;;10.30;;
64037;SDS011;54641;50.168;8.492;2022-11-18T01:30:50;25.80;;;11.40;;
64037;SDS011;54641;50.168;8.492;2022-11-18T01:33:21;24.20;;;10.60;;
64037;SDS011;54641;50.168;8.492;2022-11-18T01:35:51;22.90;;;9.80;;
64037;SDS011;54641;50.168;8.492;2022-11-18T01:38:21;20.40;;;8.60;;
64037;SDS011;54641;50.168;8.492;2022-11-18T01:40:52;21.00;;;9.70;;
64037;SDS011;54641;50.168;8.492;2022-11-18T01:43:23;22.40;;;9.70;;
64037;SDS011;54641;50.168;8.492;2022-11-18T01:45:53;21.70;;;10.10;;
64037;SDS011;54641;50.168;8.492;2022-11-18T01:48:25;27.40;;;10.20;;
64037;SDS011;54641;50.168;8.492;2022-11-18T01:50:58;24.30;;;11.40;;
64037;SDS011;54641;50.168;8.492;2022-11-18T01:53:31;23.10;;;10.80;;
64037;SDS011;54641;50.168;8.492;2022-11-18T01:56:04;21.40;;;9.80;;
64037;SDS011;54641;50.168;8.492;2022-11-18T01:58:39;19.30;;;9.20;;
64037;SDS011;54641;50.168;8.492;2022-11-18T02:01:11;23.10;;;10.80;;
64037;SDS011;54641;50.168;8.492;2022-11-18T02:03:42;23.00;;;10.40;;
64037;SDS011;54641;50.168;8.492;2022-11-18T02:06:14;24.60;;;9.80;;
64037;SDS011;54641;50.168;8.492;2022-11-18T02:08:45;21.00;;;9.70;;
64037;SDS011;54641;50.168;8.492;2022-11-18T02:11:15;20.40;;;9.80;;
64037;SDS011;54641;50.168;8.492;2022-11-18T02:14:04;17.50;;;8.30;;
64037;SDS011;54641;50.168;8.492;2022-11-18T02:16:39;19.80;;;8.50;;
64037;SDS011;54641;50.168;8.492;2022-11-18T02:19:20;17.40;;;8.90;;
64037;SDS011;54641;50.168;8.492;2022-11-18T02:22:16;18.70;;;8.00;;
64037;SDS011;54641;50.168;8.492;2022-11-18T02:24:55;16.20;;;8.50;;
64037;SDS011;54641;50.168;8.492;2022-11-18T02:27:38;14.80;;;7.70;;
64037;SDS011;54641;50.168;8.492;2022-11-18T02:30:27;18.30;;;7.60;;
64037;SDS011;54641;50.168;8.492;2022-11-18T02:33:01;20.00;;;8.40;;
64037;SDS011;54641;50.168;8.492;2022-11-18T02:35:34;17.50;;;9.40;;
64037;SDS011;54641;50.168;8.492;2022-11-18T02:38:09;23.50;;;9.10;;
64037;SDS011;54641;50.168;8.492;2022-11-18T02:40:43;16.60;;;8.00;;
64037;SDS011;54641;50.168;8.492;2022-11-18T02:43:16;21.50;;;10.10;;
64037;SDS011;54641;50.168;8.492;2022-11-18T02:45:50;15.30;;;7.70;;
64037;SDS011;54641;50.168;8.492;2022-11-18T02:48:23;18.20;;;8.90;;
64037;SDS011;54641;50.168;8.492;2022-11-18T02:50:55;18.40;;;9.10;;
64037;SDS011;54641;50.168;8.492;2022-11-18T02:53:26;18.90;;;8.90;;
64037;SDS011;54641;50.168;8.492;2022-11-18T02:56:00;19.50;;;8.30;;
64037;SDS011;54641;50.168;8.492;2022-11-18T02:58:31;22.10;;;8.50;;
64037;SDS011;54641;50.168;8.492;2022-11-18T03:01:02;17.80;;;9.00;;
64037;SDS011;54641;50.168;8.492;2022-11-18T03:03:33;21.30;;;10.30;;
64037;SDS011;54641;50.168;8.492;2022-11-18T03:06:06;22.30;;;10.20;;
64037;SDS011;54641;50.168;8.492;2022-11-18T03:08:40;20.10;;;8.50;;
64037;SDS011;54641;50.168;8.492;2022-11-18T03:11:13;24.30;;;9.60;;
64037;SDS011;54641;50.168;8.492;2022-11-18T03:13:51;22.50;;;8.80;;
64037;SDS011;54641;50.168;8.492;2022-11-18T03:16:30;18.00;;;9.00;;
64037;SDS011;54641;50.168;8.492;2022-11-18T03:19:06;21.20;;;9.20;;
64037;SDS011;54641;50.168;8.492;2022-11-18T03:21:41;21.90;;;9.20;;
64037;SDS011;54641;50.168;8.492;2022-11-18T03:26:44;19.80;;;8.80;;
64037;SDS011;54641;50.168;8.492;2022-11-18T03:29:17;27.70;;;9.50;;
64037;SDS011;54641;50.168;8.492;2022-11-18T03:31:51;23.40;;;9.10;;
64037;SDS011;54641;50.168;8.492;2022-11-18T03:34:25;26.10;;;10.70;;
64037;SDS011;54641;50.168;8.492;2022-11-18T03:36:59;17.70;;;9.00;;
64037;SDS011;54641;50.168;8.492;2022-11-18T03:39:38;24.70;;;10.60;;
64037;SDS011;54641;50.168;8.492;2022-11-18T03:42:11;23.20;;;8.50;;
64037;SDS011;54641;50.168;8.492;2022-11-18T03:44:44;20.00;;;9.10;;
64037;SDS011;54641;50.168;8.492;2022-11-18T03:47:20;20.00;;;8.80;;
64037;SDS011;54641;50.168;8.492;2022-11-18T03:49:54;20.20;;;8.70;;
64037;SDS011;54641;50.168;8.492;2022-11-18T03:52:27;14.50;;;6.40;;
64037;SDS011;54641;50.168;8.492;2022-11-18T03:55:00;19.00;;;8.20;;
64037;SDS011;54641;50.168;8.492;2022-11-18T03:57:33;16.10;;;8.20;;
64037;SDS011;54641;50.168;8.492;2022-11-18T04:00:10;14.50;;;6.70;;
64037;SDS011;54641;50.168;8.492;2022-11-18T04:02:42;17.90;;;7.30;;
64037;SDS011;54641;50.168;8.492;2022-11-18T04:05:13;16.50;;;7.60;;
64037;SDS011;54641;50.168;8.492;2022-11-18T04:07:47;15.20;;;7.80;;
64037;SDS011;54641;50.168;8.492;2022-11-18T04:10:23;15.60;;;7.50;;
64037;SDS011;54641;50.168;8.492;2022-11-18T04:12:58;18.30;;;8.80;;
64037;SDS011;54641;50.168;8.492;2022-11-18T04:15:35;19.30;;;8.30;;
64037;SDS011;54641;50.168;8.492;2022-11-18T04:18:06;16.90;;;7.90;;
64037;SDS011;54641;50.168;8.492;2022-11-18T04:20:37;15.10;;;7.20;;
64037;SDS011;54641;50.168;8.492;2022-11-18T04:23:07;15.00;;;7.50;;
64037;SDS011;54641;50.168;8.492;2022-11-18T04:25:38;17.00;;;8.10;;
64037;SDS011;54641;50.168;8.492;2022-11-18T04:28:08;16.50;;;6.90;;
64037;SDS011;54641;50.168;8.492;2022-11-18T04:30:39;18.60;;;7.30;;
64037;SDS011;54641;50.168;8.492;2022-11-18T04:33:10;13.10;;;6.10;;
64037;SDS011;54641;50.168;8.492;2022-11-18T04:35:40;12.50;;;6.00;;
64037;SDS011;54641;50.168;8.492;2022-11-18T04:38:10;12.20;;;6.10;;
64037;SDS011;54641;50.168;8.492;2022-11-18T04:40:48;11.20;;;5.70;;
64037;SDS011;54641;50.168;8.492;2022-11-18T04:43:18;11.20;;;6.50;;
64037;SDS011;54641;50.168;8.492;2022-11-18T04:45:49;13.20;;;5.90;;
64037;SDS011;54641;50.168;8.492;2022-11-18T04:48:19;12.50;;;5.80;;
64037;SDS011;54641;50.168;8.492;2022-11-18T04:50:50;8.90;;;4.60;;
64037;SDS011;54641;50.168;8.492;2022-11-18T04:53:20;12.00;;;5.70;;
64037;SDS011;54641;50.168;8.492;2022-11-18T04:55:51;10.10;;;5.00;;
64037;SDS011;54641;50.168;8.492;2022-11-18T04:58:21;9.70;;;5.00;;
64037;SDS011;54641;50.168;8.492;2022-11-18T05:00:51;7.60;;;4.00;;
64037;SDS011;54641;50.168;8.492;2022-11-18T05:03:22;8.50;;;4.60;;
64037;SDS011;54641;50.168;8.492;2022-11-18T05:05:52;8.50;;;3.60;;
64037;SDS011;54641;50.168;8.492;2022-11-18T05:08:23;7.40;;;3.30;;
64037;SDS011;54641;50.168;8.492;2022-11-18T05:10:53;8.90;;;3.30;;
64037;SDS011;54641;50.168;8.492;2022-11-18T05:13:44;6.70;;;2.90;;
64037;SDS011;54641;50.168;8.492;2022-11-18T05:16:14;6.40;;;2.70;;
64037;SDS011;54641;50.168;8.492;2022-11-18T05:18:44;4.30;;;2.20;;
64037;SDS011;54641;50.168;8.492;2022-11-18T05:21:15;6.80;;;2.50;;
64037;SDS011;54641;50.168;8.492;2022-11-18T05:23:46;5.10;;;2.40;;
64037;SDS011;54641;50.168;8.492;2022-11-18T05:26:17;5.80;;;2.90;;
64037;SDS011;54641;50.168;8.492;2022-11-18T05:28:47;4.60;;;2.40;;
64037;SDS011;54641;50.168;8.492;2022-11-18T05:31:18;5.00;;;2.80;;
64037;SDS011;54641;50.168;8.492;2022-11-18T05:33:48;5.00;;;2.50;;
64037;SDS011;54641;50.168;8.492;2022-11-18T05:36:19;6.30;;;2.50;;
64037;SDS011;54641;50.168;8.492;2022-11-18T05:38:50;6.50;;;2.60;;
64037;SDS011;54641;50.168;8.492;2022-11-18T05:41:20;6.40;;;2.80;;
64037;SDS011;54641;50.168;8.492;2022-11-18T05:44:09;6.30;;;2.20;;
64037;SDS011;54641;50.168;8.492;2022-11-18T05:46:40;4.20;;;1.60;;
64037;SDS011;54641;50.168;8.492;2022-11-18T05:49:10;10.30;;;3.40;;
64037;SDS011;54641;50.168;8.492;2022-11-18T05:51:41;4.40;;;2.10;;
64037;SDS011;54641;50.168;8.492;2022-11-18T05:54:11;7.80;;;3.30;;
64037;SDS011;54641;50.168;8.492;2022-11-18T05:56:43;6.30;;;3.10;;
64037;SDS011;54641;50.168;8.492;2022-11-18T05:59:14;6.40;;;1.50;;
64037;SDS011;54641;50.168;8.492;2022-11-18T06:01:45;3.90;;;1.70;;
64037;SDS011;54641;50.168;8.492;2022-11-18T06:04:18;3.90;;;2.20;;
64037;SDS011;54641;50.168;8.492;2022-11-18T06:06:52;3.90;;;1.90;;
64037;SDS011;54641;50.168;8.492;2022-11-18T06:09:26;5.00;;;2.00;;
64037;SDS011;54641;50.168;8.492;2022-11-18T06:12:00;6.20;;;2.60;;
64037;SDS011;54641;50.168;8.492;2022-11-18T06:14:32;4.40;;;2.10;;
64037;SDS011;54641;50.168;8.492;2022-11-18T06:17:08;5.90;;;2.60;;
64037;SDS011;54641;50.168;8.492;2022-11-18T06:19:41;5.30;;;2.80;;
64037;SDS011;54641;50.168;8.492;2022-11-18T06:22:12;4.90;;;2.70;;
64037;SDS011;54641;50.168;8.492;2022-11-18T06:24:43;7.10;;;3.10;;
64037;SDS011;54641;50.168;8.492;2022-11-18T06:27:14;6.10;;;2.70;;
64037;SDS011;54641;50.168;8.492;2022-11-18T06:29:45;9.20;;;3.20;;
64037;SDS011;54641;50.168;8.492;2022-11-18T06:32:15;5.70;;;3.00;;
64037;SDS011;54641;50.168;8.492;2022-11-18T06:34:46;5.40;;;3.10;;
64037;SDS011;54641;50.168;8.492;2022-11-18T06:37:17;6.70;;;3.50;;
64037;SDS011;54641;50.168;8.492;2022-11-18T06:39:48;6.90;;;3.70;;
64037;SDS011;54641;50.168;8.492;2022-11-18T06:42:18;5.50;;;3.40;;
64037;SDS011;54641;50.168;8.492;2022-11-18T06:45:03;6.50;;;3.70;;
64037;SDS011;54641;50.168;8.492;2022-11-18T06:47:35;6.00;;;3.00;;
64037;SDS011;54641;50.168;8.492;2022-11-18T06:50:06;6.30;;;3.70;;
64037;SDS011;54641;50.168;8.492;2022-11-18T06:52:37;6.40;;;3.40;;
64037;SDS011;54641;50.168;8.492;2022-11-18T06:55:07;9.40;;;5.90;;
64037;SDS011;54641;50.168;8.492;2022-11-18T06:57:38;12.60;;;6.50;;
64037;SDS011;54641;50.168;8.492;2022-11-18T07:00:09;10.40;;;5.80;;
64037;SDS011;54641;50.168;8.492;2022-11-18T07:05:10;8.40;;;4.40;;
64037;SDS011;54641;50.168;8.492;2022-11-18T07:07:41;9.90;;;5.50;;
64037;SDS011;54641;50.168;8.492;2022-11-18T07:10:11;9.10;;;4.70;;
64037;SDS011;54641;50.168;8.492;2022-11-18T07:12:42;8.30;;;4.90;;
64037;SDS011;54641;50.168;8.492;2022-11-18T07:15:12;10.80;;;5.60;;
64037;SDS011;54641;50.168;8.492;2022-11-18T07:17:43;11.90;;;6.00;;
64037;SDS011;54641;50.168;8.492;2022-11-18T07:20:14;16.30;;;6.50;;
64037;SDS011;54641;50.168;8.492;2022-11-18T07:22:44;14.90;;;7.40;;
64037;SDS011;54641;50.168;8.492;2022-11-18T07:25:15;14.10;;;6.00;;
64037;SDS011;54641;50.168;8.492;2022-11-18T07:27:45;9.40;;;5.60;;
64037;SDS011;54641;50.168;8.492;2022-11-18T07:30:16;8.90;;;5.40;;
64037;SDS011;54641;50.168;8.492;2022-11-18T07:32:48;10.70;;;5.30;;
64037;SDS011;54641;50.168;8.492;2022-11-18T07:35:19;8.40;;;4.40;;
64037;SDS011;54641;50.168;8.492;2022-11-18T07:37:50;8.90;;;3.10;;
64037;SDS011;54641;50.168;8.492;2022-11-18T07:40:20;6.20;;;2.90;;
64037;SDS011;54641;50.168;8.492;2022-11-18T07:42:50;4.50;;;2.20;;
64037;SDS011;54641;50.168;8.492;2022-11-18T07:45:24;5.10;;;3.00;;
64037;SDS011;54641;50.168;8.492;2022-11-18T07:47:54;6.60;;;3.00;;
64037;SDS011;54641;50.168;8.492;2022-11-18T07:50:25;5.00;;;2.60;;
64037;SDS011;54641;50.168;8.492;2022-11-18T07:52:56;3.80;;;2.20;;
64037;SDS011;54641;50.168;8.492;2022-11-18T07:55:26;4.00;;;1.90;;
64037;SDS011;54641;50.168;8.492;2022-11-18T07:57:59;4.50;;;2.40;;
64037;SDS011;54641;50.168;8.492;2022-11-18T08:00:30;9.50;;;2.30;;
64037;SDS011;54641;50.168;8.492;2022-11-18T08:03:00;3.20;;;2.00;;
64037;SDS011;54641;50.168;8.492;2022-11-18T08:05:31;4.20;;;2.10;;
64037;SDS011;54641;50.168;8.492;2022-11-18T08:08:01;4.00;;;1.60;;
64037;SDS011;54641;50.168;8.492;2022-11-18T08:10:32;4.50;;;2.70;;
64037;SDS011;54641;50.168;8.492;2022-11-18T08:13:02;6.30;;;2.60;;
64037;SDS011;54641;50.168;8.492;2022-11-18T08:15:32;8.50;;;2.20;;
64037;SDS011;54641;50.168;8.492;2022-11-18T08:18:03;8.40;;;4.30;;
64037;SDS011;54641;50.168;8.492;2022-11-18T08:20:40;8.90;;;4.10;;
64037;SDS011;54641;50.168;8.492;2022-11-18T08:23:11;9.80;;;4.00;;
64037;SDS011;54641;50.168;8.492;2022-11-18T08:25:42;6.20;;;3.60;;
64037;SDS011;54641;50.168;8.492;2022-11-18T08:28:13;6.50;;;2.40;;
64037;SDS011;54641;50.168;8.492;2022-11-18T08:30:44;5.30;;;2.60;;
64037;SDS011;54641;50.168;8.492;2022-11-18T08:33:14;3.90;;;1.90;;
64037;SDS011;54641;50.168;8.492;2022-11-18T08:35:45;6.90;;;2.80;;
64037;SDS011;54641;50.168;8.492;2022-11-18T08:38:15;4.90;;;1.90;;
64037;SDS011;54641;50.168;8.492;2022-11-18T08:40:46;5.20;;;1.70;;
64037;SDS011;54641;50.168;8.492;2022-11-18T08:43:16;3.10;;;1.60;;
64037;SDS011;54641;50.168;8.492;2022-11-18T08:45:47;2.90;;;1.70;;
64037;SDS011;54641;50.168;8.492;2022-11-18T08:48:17;3.70;;;1.90;;
64037;SDS011;54641;50.168;8.492;2022-11-18T08:50:47;3.80;;;1.80;;
64037;SDS011;54641;50.168;8.492;2022-11-18T08:53:18;3.90;;;1.90;;
64037;SDS011;54641;50.168;8.492;2022-11-18T08:55:54;4.10;;;2.10;;
64037;SDS011;54641;50.168;8.492;2022-11-18T08:58:25;3.50;;;1.70;;
64037;SDS011;54641;50.168;8.492;2022-11-18T09:00:56;4.30;;;2.10;;
64037;SDS011;54641;50.168;8.492;2022-11-18T09:03:26;4.60;;;2.10;;
64037;SDS011;54641;50.168;8.492;2022-11-18T09:06:04;6.80;;;2.10;;
64037;SDS011;54641;50.168;8.492;2022-11-18T09:08:36;7.20;;;2.20;;
64037;SDS011;54641;50.168;8.492;2022-11-18T09:11:07;5.90;;;2.10;;
64037;SDS011;54641;50.168;8.492;2022-11-18T09:13:39;5.40;;;2.30;;
64037;SDS011;54641;50.168;8.492;2022-11-18T09:16:32;5.40;;;2.20;;
64037;SDS011;54641;50.168;8.492;2022-11-18T09:19:03;4.10;;;2.60;;
64037;SDS011;54641;50.168;8.492;2022-11-18T09:21:53;5.70;;;2.40;;
64037;SDS011;54641;50.168;8.492;2022-11-18T09:24:23;7.60;;;2.40;;
64037;SDS011;54641;50.168;8.492;2022-11-18T09:26:54;4.80;;;2.40;;
64037;SDS011;54641;50.168;8.492;2022-11-18T09:29:24;4.20;;;2.20;;
64037;SDS011;54641;50.168;8.492;2022-11-18T09:31:55;3.50;;;2.20;;
64037;SDS011;54641;50.168;8.492;2022-11-18T09:34:28;6.10;;;3.10;;
64037;SDS011;54641;50.168;8.492;2022-11-18T09:36:59;6.00;;;2.60;;
64037;SDS011;54641;50.168;8.492;2022-11-18T09:39:29;7.30;;;3.10;;
64037;SDS011;54641;50.168;8.492;2022-11-18T09:42:11;5.40;;;2.60;;
64037;SDS011;54641;50.168;8.492;2022-11-18T09:44:54;5.30;;;3.10;;
64037;SDS011;54641;50.168;8.492;2022-11-18T09:47:40;6.90;;;3.70;;
64037;SDS011;54641;50.168;8.492;2022-11-18T09:50:11;6.20;;;3.40;;
64037;SDS011;54641;50.168;8.492;2022-11-18T09:53:05;7.30;;;3.20;;
64037;SDS011;54641;50.168;8.492;2022-11-18T09:58:17;4.70;;;2.80;;
64037;SDS011;54641;50.168;8.492;2022-11-18T10:00:50;4.20;;;2.60;;
64037;SDS011;54641;50.168;8.492;2022-11-18T10:03:22;4.50;;;2.60;;
64037;SDS011;54641;50.168;8.492;2022-11-18T10:05:56;4.00;;;2.20;;
64037;SDS011;54641;50.168;8.492;2022-11-18T10:08:30;3.90;;;2.20;;
64037;SDS011;54641;50.168;8.492;2022-11-18T10:11:05;7.90;;;3.00;;
64037;SDS011;54641;50.168;8.492;2022-11-18T10:13:43;4.70;;;2.40;;
64037;SDS011;54641;50.168;8.492;2022-11-18T10:16:34;5.00;;;2.00;;
64037;SDS011;54641;50.168;8.492;2022-11-18T10:19:14;4.60;;;2.20;;
64037;SDS011;54641;50.168;8.492;2022-11-18T10:21:56;4.80;;;2.50;;
64037;SDS011;54641;50.168;8.492;2022-11-18T10:24:41;5.10;;;2.50;;
64037;SDS011;54641;50.168;8.492;2022-11-18T10:27:13;4.20;;;2.10;;
64037;SDS011;54641;50.168;8.492;2022-11-18T10:29:47;8.90;;;4.40;;
64037;SDS011;54641;50.168;8.492;2022-11-18T10:32:20;5.90;;;2.10;;
64037;SDS011;54641;50.168;8.492;2022-11-18T10:34:51;4.30;;;2.00;;
64037;SDS011;54641;50.168;8.492;2022-11-18T10:37:24;6.20;;;1.80;;
64037;SDS011;54641;50.168;8.492;2022-11-18T10:40:24;4.90;;;1.80;;
64037;SDS011;54641;50.168;8.492;2022-11-18T10:42:55;6.40;;;1.80;;
64037;SDS011;54641;50.168;8.492;2022-11-18T10:45:27;3.90;;;1.90;;
64037;SDS011;54641;50.168;8.492;2022-11-18T10:47:59;5.40;;;2.00;;
64037;SDS011;54641;50.168;8.492;2022-11-18T10:50:34;5.40;;;1.90;;
64037;SDS011;54641;50.168;8.492;2022-11-18T10:53:08;4.50;;;1.90;;
64037;SDS011;54641;50.168;8.492;2022-11-18T10:55:58;3.80;;;1.90;;
64037;SDS011;54641;50.168;8.492;2022-11-18T10:58:30;5.70;;;1.80;;
64037;SDS011;54641;50.168;8.492;2022-11-18T11:01:06;7.80;;;2.50;;
64037;SDS011;54641;50.168;8.492;2022-11-18T11:03:41;3.30;;;1.50;;
64037;SDS011;54641;50.168;8.492;2022-11-18T11:06:21;3.80;;;1.70;;
64037;SDS011;54641;50.168;8.492;2022-11-18T11:08:58;3.60;;;1.70;;
64037;SDS011;54641;50.168;8.492;2022-11-18T11:11:54;3.10;;;1.30;;
64037;SDS011;54641;50.168;8.492;2022-11-18T11:14:27;3.10;;;1.60;;
64037;SDS011;54641;50.168;8.492;2022-11-18T11:17:05;3.40;;;1.60;;
64037;SDS011;54641;50.168;8.492;2022-11-18T11:19:40;4.90;;;1.30;;
64037;SDS011;54641;50.168;8.492;2022-11-18T11:22:13;1.90;;;1.30;;
64037;SDS011;54641;50.168;8.492;2022-11-18T11:24:44;2.70;;;1.60;;
64037;SDS011;54641;50.168;8.492;2022-11-18T11:27:31;5.30;;;2.20;;
64037;SDS011;54641;50.168;8.492;2022-11-18T11:30:26;3.00;;;1.20;;
64037;SDS011;54641;50.168;8.492;2022-11-18T11:33:09;4.90;;;1.30;;
64037;SDS011;54641;50.168;8.492;2022-11-18T11:35:49;3.20;;;1.10;;
64037;SDS011;54641;50.168;8.492;2022-11-18T11:38:25;3.60;;;1.20;;
64037;SDS011;54641;50.168;8.492;2022-11-18T11:41:05;2.10;;;1.00;;
64037;SDS011;54641;50.168;8.492;2022-11-18T11:43:43;2.90;;;1.30;;
64037;SDS011;54641;50.168;8.492;2022-11-18T11:46:28;2.10;;;1.00;;
64037;SDS011;54641;50.168;8.492;2022-11-18T11:49:17;3.30;;;1.40;;
64037;SDS011;54641;50.168;8.492;2022-11-18T11:51:53;5.10;;;1.50;;
64037;SDS011;54641;50.168;8.492;2022-11-18T11:54:31;2.80;;;1.20;;
64037;SDS011;54641;50.168;8.492;2022-11-18T11:57:08;1.90;;;1.30;;
64037;SDS011;54641;50.168;8.492;2022-11-18T11:59:44;2.60;;;1.10;;
64037;SDS011;54641;50.168;8.492;2022-11-18T12:02:24;1.90;;;0.90;;
64037;SDS011;54641;50.168;8.492;2022-11-18T12:05:06;5.60;;;2.40;;
64037;SDS011;54641;50.168;8.492;2022-11-18T12:07:44;2.30;;;1.20;;
64037;SDS011;54641;50.168;8.492;2022-11-18T12:10:24;3.00;;;1.30;;
64037;SDS011;54641;50.168;8.492;2022-11-18T12:13:02;2.80;;;1.20;;
64037;SDS011;54641;50.168;8.492;2022-11-18T12:15:41;3.20;;;1.40;;
64037;SDS011;54641;50.168;8.492;2022-11-18T12:18:16;3.50;;;1.30;;
64037;SDS011;54641;50.168;8.492;2022-11-18T12:20:51;2.80;;;1.30;;
64037;SDS011;54641;50.168;8.492;2022-11-18T12:23:22;5.70;;;1.00;;
64037;SDS011;54641;50.168;8.492;2022-11-18T12:26:04;3.70;;;1.10;;
64037;SDS011;54641;50.168;8.492;2022-11-18T12:28:36;2.30;;;1.00;;
64037;SDS011;54641;50.168;8.492;2022-11-18T12:31:28;3.80;;;1.30;;
64037;SDS011;54641;50.168;8.492;2022-11-18T12:34:02;5.40;;;1.40;;
64037;SDS011;54641;50.168;8.492;2022-11-18T12:36:35;3.50;;;1.50;;
64037;SDS011;54641;50.168;8.492;2022-11-18T12:42:08;2.40;;;1.20;;
64037;SDS011;54641;50.168;8.492;2022-11-18T12:45:47;3.40;;;1.10;;
64037;SDS011;54641;50.168;8.492;2022-11-18T12:48:32;3.40;;;1.10;;
64037;SDS011;54641;50.168;8.492;2022-11-18T12:57:00;1.80;;;1.00;;
64037;SDS011;54641;50.168;8.492;2022-11-18T12:59:33;2.90;;;1.10;;
64037;SDS011;54641;50.168;8.492;2022-11-18T13:02:14;2.90;;;1.90;;
64037;SDS011;54641;50.168;8.492;2022-11-18T13:07:44;5.40;;;1.50;;
64037;SDS011;54641;50.168;8.492;2022-11-18T13:10:33;4.60;;;1.40;;
64037;SDS011;54641;50.168;8.492;2022-11-18T13:13:06;5.20;;;1.70;;
64037;SDS011;54641;50.168;8.492;2022-11-18T13:15:47;4.60;;;1.80;;
64037;SDS011;54641;50.168;8.492;2022-11-18T13:18:47;2.80;;;1.20;;
64037;SDS011;54641;50.168;8.492;2022-11-18T13:21:22;6.30;;;2.50;;
64037;SDS011;54641;50.168;8.492;2022-11-18T13:24:12;3.80;;;1.70;;
64037;SDS011;54641;50.168;8.492;2022-11-18T13:26:44;3.70;;;1.50;;
64037;SDS011;54641;50.168;8.492;2022-11-18T13:29:19;3.00;;;1.80;;
64037;SDS011;54641;50.168;8.492;2022-11-18T13:31:59;5.00;;;1.20;;
64037;SDS011;54641;50.168;8.492;2022-11-18T13:37:13;4.90;;;1.30;;
64037;SDS011;54641;50.168;8.492;2022-11-18T13:39:46;1.70;;;1.20;;
64037;SDS011;54641;50.168;8.492;2022-11-18T13:42:18;4.00;;;1.20;;
64037;SDS011;54641;50.168;8.492;2022-11-18T13:44:53;2.40;;;1.30;;
64037;SDS011;54641;50.168;8.492;2022-11-18T13:47:28;3.30;;;1.40;;
64037;SDS011;54641;50.168;8.492;2022-11-18T13:50:04;3.20;;;0.90;;
64037;SDS011;54641;50.168;8.492;2022-11-18T13:52:42;4.60;;;1.20;;
64037;SDS011;54641;50.168;8.492;2022-11-18T13:55:17;3.60;;;1.30;;
64037;SDS011;54641;50.168;8.492;2022-11-18T13:57:51;2.40;;;1.20;;
64037;SDS011;54641;50.168;8.492;2022-11-18T14:00:25;3.80;;;1.20;;
64037;SDS011;54641;50.168;8.492;2022-11-18T14:02:57;6.40;;;1.90;;
64037;SDS011;54641;50.168;8.492;2022-11-18T14:05:30;2.40;;;1.10;;
64037;SDS011;54641;50.168;8.492;2022-11-18T14:08:02;1.70;;;0.90;;
64037;SDS011;54641;50.168;8.492;2022-11-18T14:10:39;3.90;;;1.00;;
64037;SDS011;54641;50.168;8.492;2022-11-18T14:13:16;4.20;;;1.10;;
64037;SDS011;54641;50.168;8.492;2022-11-18T14:15:50;4.40;;;1.30;;
64037;SDS011;54641;50.168;8.492;2022-11-18T14:18:23;2.80;;;1.10;;
64037;SDS011;54641;50.168;8.492;2022-11-18T14:20:58;4.60;;;1.40;;
64037;SDS011;54641;50.168;8.492;2022-11-18T14:23:29;7.00;;;1.40;;
64037;SDS011;54641;50.168;8.492;2022-11-18T14:26:01;5.10;;;1.00;;
64037;SDS011;54641;50.168;8.492;2022-11-18T14:28:33;3.70;;;0.90;;
64037;SDS011;54641;50.168;8.492;2022-11-18T14:31:05;2.40;;;1.30;;
64037;SDS011;54641;50.168;8.492;2022-11-18T14:37:01;5.10;;;1.60;;
64037;SDS011;54641;50.168;8.492;2022-11-18T14:39:34;2.00;;;0.80;;
64037;SDS011;54641;50.168;8.492;2022-11-18T14:42:08;3.80;;;1.30;;
64037;SDS011;54641;50.168;8.492;2022-11-18T14:44:40;3.20;;;1.30;;
64037;SDS011;54641;50.168;8.492;2022-11-18T14:47:13;6.20;;;1.30;;
64037;SDS011;54641;50.168;8.492;2022-11-18T14:49:46;3.10;;;1.40;;
64037;SDS011;54641;50.168;8.492;2022-11-18T14:52:16;3.20;;;1.50;;
64037;SDS011;54641;50.168;8.492;2022-11-18T14:54:47;3.10;;;1.70;;
64037;SDS011;54641;50.168;8.492;2022-11-18T14:57:18;2.00;;;0.90;;
64037;SDS011;54641;50.168;8.492;2022-11-18T14:59:49;4.60;;;1.20;;
64037;SDS011;54641;50.168;8.492;2022-11-18T15:02:19;5.60;;;1.20;;
64037;SDS011;54641;50.168;8.492;2022-11-18T15:04:50;3.90;;;1.20;;
64037;SDS011;54641;50.168;8.492;2022-11-18T15:07:23;5.30;;;1.20;;
64037;SDS011;54641;50.168;8.492;2022-11-18T15:09:54;5.50;;;1.20;;
64037;SDS011;54641;50.168;8.492;2022-11-18T15:12:25;5.10;;;1.00;;
64037;SDS011;54641;50.168;8.492;2022-11-18T15:14:55;6.70;;;1.00;;
64037;SDS011;54641;50.168;8.492;2022-11-18T15:17:26;1.60;;;0.90;;
64037;SDS011;54641;50.168;8.492;2022-11-18T15:19:56;4.30;;;1.00;;
64037;SDS011;54641;50.168;8.492;2022-11-18T15:22:28;4.40;;;1.10;;
64037;SDS011;54641;50.168;8.492;2022-11-18T15:24:59;3.70;;;1.50;;
64037;SDS011;54641;50.168;8.492;2022-11-18T15:27:29;5.90;;;1.80;;
64037;SDS011;54641;50.168;8.492;2022-11-18T15:30:00;4.60;;;1.40;;
64037;SDS011;54641;50.168;8.492;2022-11-18T15:32:31;5.30;;;1.80;;
64037;SDS011;54641;50.168;8.492;2022-11-18T15:35:02;2.30;;;1.30;;
64037;SDS011;54641;50.168;8.492;2022-11-18T15:37:33;3.30;;;1.20;;
64037;SDS011;54641;50.168;8.492;2022-11-18T15:40:03;2.80;;;1.20;;
64037;SDS011;54641;50.168;8.492;2022-11-18T15:42:34;5.40;;;1.30;;
64037;SDS011;54641;50.168;8.492;2022-11-18T15:45:18;4.80;;;1.90;;
64037;SDS011;54641;50.168;8.492;2022-11-18T15:47:51;7.80;;;1.40;;